createdAt,value
2023-04-18T00:00:02.116Z,0.02
2023-04-18T00:01:02.486Z,0.02
2023-04-18T00:02:02.563Z,0.03
2023-04-18T00:03:04.500Z,0.02
2023-04-18T00:04:02.807Z,0.02
2023-04-18T00:05:02.973Z,0.02
2023-04-18T00:06:02.648Z,0.02
2023-04-18T00:07:03.047Z,0.02
2023-04-18T00:08:02.682Z,0.02
2023-04-18T00:09:02.757Z,0.02
2023-04-18T00:10:02.496Z,0.03
2023-04-18T00:11:02.900Z,0.03
2023-04-18T00:12:03.283Z,0.02
2023-04-18T00:13:02.907Z,0.02
2023-04-18T00:14:03.301Z,0.02
2023-04-18T00:15:03.331Z,0.02
2023-04-18T00:16:02.873Z,0.02
2023-04-18T00:17:02.521Z,0.02
2023-04-18T00:18:03.003Z,0.02
2023-04-18T00:19:02.378Z,0.02
2023-04-18T00:20:02.378Z,0.03
2023-04-18T00:21:03.005Z,0.02
2023-04-18T00:22:02.624Z,0.02
2023-04-18T00:23:02.832Z,0.02
2023-04-18T00:24:02.788Z,0.03
2023-04-18T00:25:03.135Z,0.02
2023-04-18T00:26:02.740Z,0.03
2023-04-18T00:27:02.772Z,0.01
2023-04-18T00:28:02.770Z,0.02
2023-04-18T00:29:02.237Z,0.03
2023-04-18T00:30:02.546Z,0.02
2023-04-18T00:31:02.865Z,0.02
2023-04-18T00:32:02.563Z,0.02
2023-04-18T00:33:03.046Z,0.02
2023-04-18T00:34:02.688Z,0.02
2023-04-18T00:35:02.992Z,0.03
2023-04-18T00:36:02.415Z,0.03
2023-04-18T00:37:02.311Z,0.02
2023-04-18T00:38:02.009Z,0.02
2023-04-18T00:39:01.896Z,0.03
2023-04-18T00:40:02.238Z,0.02
2023-04-18T00:41:02.197Z,0.02
2023-04-18T00:42:02.075Z,0.02
2023-04-18T00:43:02.431Z,0.03
2023-04-18T00:44:02.291Z,0.02
2023-04-18T00:45:02.113Z,0.02
2023-04-18T00:46:02.254Z,0.03
2023-04-18T00:47:01.969Z,0.02
2023-04-18T00:48:02.365Z,0.02
2023-04-18T00:49:01.999Z,0.03
2023-04-18T00:50:02.303Z,0.02
2023-04-18T00:51:02.334Z,0.02
2023-04-18T00:52:02.106Z,0.02
2023-04-18T00:53:02.446Z,0.01
2023-04-18T00:54:02.058Z,0.03
2023-04-18T00:55:02.700Z,0.03
2023-04-18T00:56:02.067Z,0.02
2023-04-18T00:57:02.793Z,0.02
2023-04-18T00:58:02.659Z,0.02
2023-04-18T00:59:02.990Z,0.03
2023-04-18T01:00:02.477Z,0.03
2023-04-18T01:01:03.020Z,0.02
2023-04-18T01:02:02.625Z,0.03
2023-04-18T01:03:03.458Z,0.02
2023-04-18T01:04:02.764Z,0.02
2023-04-18T01:05:02.939Z,0.02
2023-04-18T01:06:03.000Z,0.02
2023-04-18T01:07:03.239Z,0.02
2023-04-18T01:08:03.186Z,0.02
2023-04-18T01:09:03.278Z,0.02
2023-04-18T01:10:03.726Z,0.02
2023-04-18T01:11:03.190Z,0.02
2023-04-18T01:12:02.645Z,0.02
2023-04-18T01:13:02.955Z,0.02
2023-04-18T01:14:03.179Z,0.02
2023-04-18T01:15:02.956Z,0.02
2023-04-18T01:16:02.563Z,0.02
2023-04-18T01:17:03.041Z,0.03
2023-04-18T01:18:03.390Z,0.02
2023-04-18T01:19:03.028Z,0.02
2023-04-18T01:20:03.418Z,0.03
2023-04-18T01:21:03.297Z,0.03
2023-04-18T01:22:02.998Z,0.02
2023-04-18T01:23:03.271Z,0.02
2023-04-18T01:24:03.131Z,0.02
2023-04-18T01:25:03.522Z,0.02
2023-04-18T01:26:03.321Z,0.03
2023-04-18T01:27:03.008Z,0.02
2023-04-18T01:28:03.118Z,0.03
2023-04-18T01:29:03.483Z,0.02
2023-04-18T01:30:03.579Z,0.02
2023-04-18T01:31:02.957Z,0.02
2023-04-18T01:32:02.415Z,0.02
2023-04-18T01:33:02.916Z,0.03
2023-04-18T01:34:02.601Z,0.02
2023-04-18T01:35:02.347Z,0.03
2023-04-18T01:36:02.955Z,0.03
2023-04-18T01:37:03.185Z,0.03
2023-04-18T01:38:03.636Z,0.02
2023-04-18T01:39:03.012Z,0.03
2023-04-18T01:40:03.043Z,0.02
2023-04-18T01:41:03.424Z,0.02
2023-04-18T01:42:02.744Z,0.02
2023-04-18T01:43:03.135Z,0.02
2023-04-18T01:44:03.171Z,0.02
2023-04-18T01:45:02.825Z,0.03
2023-04-18T01:46:03.028Z,0.02
2023-04-18T01:47:03.261Z,0.03
2023-04-18T01:48:03.184Z,0.02
2023-04-18T01:49:02.900Z,0.03
2023-04-18T01:50:03.210Z,0.02
2023-04-18T01:51:03.251Z,0.02
2023-04-18T01:52:03.009Z,0.02
2023-04-18T01:53:02.621Z,0.02
2023-04-18T01:54:02.575Z,0.03
2023-04-18T01:55:02.997Z,0.02
2023-04-18T01:56:03.056Z,0.02
2023-04-18T01:57:03.344Z,0.02
2023-04-18T01:58:02.898Z,0.02
2023-04-18T01:59:03.453Z,0.03
2023-04-18T02:00:02.903Z,0.02
2023-04-18T02:01:03.476Z,0.02
2023-04-18T02:02:02.557Z,0.02
2023-04-18T02:03:03.129Z,0.02
2023-04-18T02:04:02.575Z,0.02
2023-04-18T02:05:03.016Z,0.03
2023-04-18T02:06:02.366Z,0.03
2023-04-18T02:07:02.747Z,0.02
2023-04-18T02:08:03.059Z,0.02
2023-04-18T02:09:02.645Z,0.02
2023-04-18T02:10:03.127Z,0.02
2023-04-18T02:11:02.561Z,0.03
2023-04-18T02:12:03.253Z,0.03
2023-04-18T02:13:02.734Z,0.02
2023-04-18T02:14:03.051Z,0.03
2023-04-18T02:15:03.299Z,0.02
2023-04-18T02:16:03.389Z,0.02
2023-04-18T02:17:02.613Z,0.03
2023-04-18T02:18:02.341Z,0.03
2023-04-18T02:19:02.301Z,0.02
2023-04-18T02:20:02.661Z,0.03
2023-04-18T02:21:02.311Z,0.02
2023-04-18T02:22:02.601Z,0.02
2023-04-18T02:23:02.634Z,0.02
2023-04-18T02:24:02.706Z,0.02
2023-04-18T02:25:02.339Z,0.02
2023-04-18T02:26:02.737Z,0.02
2023-04-18T02:27:03.132Z,0.02
2023-04-18T02:28:03.329Z,0.02
2023-04-18T02:29:02.761Z,0.02
2023-04-18T02:30:03.199Z,0.03
2023-04-18T02:31:03.115Z,0.03
2023-04-18T02:32:02.684Z,0.02
2023-04-18T02:33:02.289Z,0.02
2023-04-18T02:34:02.171Z,0.02
2023-04-18T02:35:02.479Z,0.02
2023-04-18T02:36:02.711Z,0.02
2023-04-18T02:37:02.541Z,0.02
2023-04-18T02:38:03.025Z,0.02
2023-04-18T02:39:02.384Z,0.02
2023-04-18T02:40:02.730Z,0.03
2023-04-18T02:41:03.006Z,0.02
2023-04-18T02:42:03.071Z,0.02
2023-04-18T02:43:02.813Z,0.02
2023-04-18T02:44:03.171Z,0.03
2023-04-18T02:45:02.834Z,0.02
2023-04-18T02:46:03.130Z,0.02
2023-04-18T02:47:02.682Z,0.02
2023-04-18T02:48:02.739Z,0.02
2023-04-18T02:49:02.500Z,0.02
2023-04-18T02:50:02.211Z,0.03
2023-04-18T02:51:02.531Z,0.02
2023-04-18T02:52:02.825Z,0.02
2023-04-18T02:53:02.911Z,0.03
2023-04-18T02:54:02.366Z,0.03
2023-04-18T02:55:02.345Z,0.03
2023-04-18T02:56:02.715Z,0.02
2023-04-18T02:57:02.986Z,0.02
2023-04-18T02:58:02.606Z,0.03
2023-04-18T02:59:02.949Z,0.03
2023-04-18T03:00:02.851Z,0.02
2023-04-18T03:01:02.630Z,0.03
2023-04-18T03:02:02.434Z,0.02
2023-04-18T03:03:02.693Z,0.03
2023-04-18T03:04:02.562Z,0.02
2023-04-18T03:05:02.438Z,0.02
2023-04-18T03:06:02.269Z,0.03
2023-04-18T03:07:01.777Z,0.02
2023-04-18T03:08:02.174Z,0.02
2023-04-18T03:09:01.978Z,0.03
2023-04-18T03:10:01.933Z,0.02
2023-04-18T03:11:02.201Z,0.03
2023-04-18T03:12:02.499Z,0.02
2023-04-18T03:13:02.130Z,0.02
2023-04-18T03:14:02.183Z,0.02
2023-04-18T03:15:02.494Z,0.02
2023-04-18T03:16:02.064Z,0.02
2023-04-18T03:17:02.239Z,0.02
2023-04-18T03:18:01.862Z,0.02
2023-04-18T03:19:02.097Z,0.02
2023-04-18T03:20:01.560Z,0.03
2023-04-18T03:21:02.192Z,0.02
2023-04-18T03:22:02.534Z,0.03
2023-04-18T03:23:02.278Z,0.03
2023-04-18T03:24:02.401Z,0.03
2023-04-18T03:25:02.163Z,0.03
2023-04-18T03:26:02.497Z,0.03
2023-04-18T03:27:02.484Z,0.02
2023-04-18T03:28:02.450Z,0.03
2023-04-18T03:29:02.731Z,0.02
2023-04-18T03:30:02.784Z,0.02
2023-04-18T03:31:02.883Z,0.02
2023-04-18T03:32:02.456Z,0.02
2023-04-18T03:33:03.011Z,0.03
2023-04-18T03:34:02.354Z,0.02
2023-04-18T03:35:02.778Z,0.03
2023-04-18T03:36:02.481Z,0.02
2023-04-18T03:37:01.934Z,0.02
2023-04-18T03:38:02.274Z,0.03
2023-04-18T03:39:01.949Z,0.02
2023-04-18T03:40:02.369Z,0.02
2023-04-18T03:41:02.057Z,0.02
2023-04-18T03:42:02.796Z,0.02
2023-04-18T03:43:02.501Z,0.03
2023-04-18T03:44:02.562Z,0.03
2023-04-18T03:45:02.926Z,0.02
2023-04-18T03:46:02.595Z,0.02
2023-04-18T03:47:02.053Z,0.02
2023-04-18T03:48:02.542Z,0.02
2023-04-18T03:49:02.043Z,0.03
2023-04-18T03:50:02.383Z,0.03
2023-04-18T03:51:02.644Z,0.03
2023-04-18T03:52:02.314Z,0.02
2023-04-18T03:53:02.000Z,0.02
2023-04-18T03:54:02.378Z,0.02
2023-04-18T03:55:02.507Z,0.02
2023-04-18T03:56:02.198Z,0.03
2023-04-18T03:57:01.500Z,0.02
2023-04-18T03:58:02.025Z,0.02
2023-04-18T03:59:01.577Z,0.02
2023-04-18T04:00:02.048Z,0.03
2023-04-18T04:01:01.893Z,0.03
2023-04-18T04:02:02.793Z,0.02
2023-04-18T04:03:02.509Z,0.02
2023-04-18T04:04:02.838Z,0.02
2023-04-18T04:05:02.471Z,0.02
2023-04-18T04:06:02.679Z,0.02
2023-04-18T04:07:02.817Z,0.02
2023-04-18T04:08:03.073Z,0.02
2023-04-18T04:09:02.781Z,0.02
2023-04-18T04:10:03.155Z,0.03
2023-04-18T04:11:03.082Z,0.02
2023-04-18T04:12:02.583Z,0.02
2023-04-18T04:13:02.493Z,0.02
2023-04-18T04:14:02.324Z,0.02
2023-04-18T04:15:01.934Z,0.03
2023-04-18T04:16:02.148Z,0.02
2023-04-18T04:17:02.508Z,0.04
2023-04-18T04:18:02.333Z,0.03
2023-04-18T04:19:02.837Z,0.04
2023-04-18T04:20:02.606Z,0.02
2023-04-18T04:21:02.360Z,0.03
2023-04-18T04:22:02.867Z,0.03
2023-04-18T04:23:02.707Z,0.03
2023-04-18T04:24:03.190Z,0.03
2023-04-18T04:25:02.674Z,0.03
2023-04-18T04:26:02.735Z,0.03
2023-04-18T04:27:02.082Z,0.04
2023-04-18T04:28:02.506Z,0.05
2023-04-18T04:29:01.952Z,0.04
2023-04-18T04:30:02.438Z,0.04
2023-04-18T04:31:02.492Z,0.04
2023-04-18T04:32:02.229Z,0.04
2023-04-18T04:33:02.508Z,0.04
2023-04-18T04:34:02.172Z,0.05
2023-04-18T04:35:02.602Z,0.04
2023-04-18T04:36:02.388Z,0.04
2023-04-18T04:37:02.376Z,0.06
2023-04-18T04:38:02.123Z,0.06
2023-04-18T04:39:02.286Z,0.06
2023-04-18T04:40:02.415Z,0.06
2023-04-18T04:41:02.056Z,0.06
2023-04-18T04:42:02.015Z,0.06
2023-04-18T04:43:02.155Z,0.08
2023-04-18T04:44:02.248Z,0.07
2023-04-18T04:45:01.830Z,0.08
2023-04-18T04:46:02.132Z,0.08
2023-04-18T04:47:02.666Z,0.09
2023-04-18T04:48:02.754Z,0.09
2023-04-18T04:49:02.402Z,0.08
2023-04-18T04:50:02.923Z,0.09
2023-04-18T04:51:02.658Z,0.09
2023-04-18T04:52:02.969Z,0.10
2023-04-18T04:53:02.847Z,0.10
2023-04-18T04:54:03.074Z,0.10
2023-04-18T04:55:02.666Z,0.11
2023-04-18T04:56:02.446Z,0.11
2023-04-18T04:57:02.535Z,0.12
2023-04-18T04:58:02.423Z,0.12
2023-04-18T04:59:02.523Z,0.11
2023-04-18T05:00:02.657Z,0.12
2023-04-18T05:01:02.839Z,0.13
2023-04-18T05:02:02.279Z,0.13
2023-04-18T05:03:02.835Z,0.14
2023-04-18T05:04:02.431Z,0.13
2023-04-18T05:05:02.670Z,0.13
2023-04-18T05:06:02.214Z,0.13
2023-04-18T05:07:02.669Z,0.14
2023-04-18T05:08:02.836Z,0.15
2023-04-18T05:09:02.610Z,0.16
2023-04-18T05:10:02.494Z,0.16
2023-04-18T05:11:02.952Z,0.15
2023-04-18T05:12:03.163Z,0.17
2023-04-18T05:13:03.350Z,0.18
2023-04-18T05:14:02.967Z,0.18
2023-04-18T05:15:02.817Z,0.19
2023-04-18T05:16:03.089Z,0.19
2023-04-18T05:17:02.100Z,0.20
2023-04-18T05:18:02.384Z,0.21
2023-04-18T05:19:01.958Z,0.21
2023-04-18T05:20:02.645Z,0.21
2023-04-18T05:21:02.131Z,0.21
2023-04-18T05:22:02.776Z,0.23
2023-04-18T05:23:02.838Z,0.22
2023-04-18T05:24:02.482Z,0.23
2023-04-18T05:25:02.450Z,0.24
2023-04-18T05:26:02.728Z,0.25
2023-04-18T05:27:02.274Z,0.25
2023-04-18T05:28:01.959Z,0.25
2023-04-18T05:29:02.158Z,0.26
2023-04-18T05:30:01.900Z,0.25
2023-04-18T05:31:02.421Z,0.26
2023-04-18T05:32:02.054Z,0.27
2023-04-18T05:33:02.285Z,0.28
2023-04-18T05:34:02.102Z,0.29
2023-04-18T05:35:01.910Z,0.29
2023-04-18T05:36:02.383Z,0.30
2023-04-18T05:37:02.587Z,0.31
2023-04-18T05:38:02.301Z,0.32
2023-04-18T05:39:02.244Z,0.34
2023-04-18T05:40:02.477Z,0.38
2023-04-18T05:41:02.625Z,0.41
2023-04-18T05:42:02.630Z,0.42
2023-04-18T05:43:02.690Z,0.43
2023-04-18T05:44:05.636Z,0.43
2023-04-18T05:45:02.957Z,0.45
2023-04-18T05:46:02.790Z,0.46
2023-04-18T05:47:02.502Z,0.47
2023-04-18T05:48:02.103Z,0.50
2023-04-18T05:49:01.927Z,0.51
2023-04-18T05:50:02.346Z,0.51
2023-04-18T05:51:02.149Z,0.53
2023-04-18T05:52:02.378Z,0.53
2023-04-18T05:53:02.386Z,0.56
2023-04-18T05:54:02.204Z,0.56
2023-04-18T05:55:02.526Z,0.58
2023-04-18T05:56:02.632Z,0.58
2023-04-18T05:57:04.278Z,0.60
2023-04-18T05:58:02.331Z,0.60
2023-04-18T05:59:02.460Z,0.62
2023-04-18T06:00:02.803Z,0.61
2023-04-18T06:01:02.731Z,0.61
2023-04-18T06:02:02.562Z,0.61
2023-04-18T06:03:02.745Z,0.61
2023-04-18T06:04:03.172Z,0.63
2023-04-18T06:05:02.829Z,0.67
2023-04-18T06:06:03.172Z,0.68
2023-04-18T06:07:01.935Z,0.69
2023-04-18T06:08:02.421Z,0.70
2023-04-18T06:09:02.160Z,0.71
2023-04-18T06:10:02.315Z,0.72
2023-04-18T06:11:02.377Z,0.71
2023-04-18T06:12:03.020Z,0.70
2023-04-18T06:13:02.912Z,0.69
2023-04-18T06:14:02.425Z,0.71
2023-04-18T06:15:02.560Z,0.70
2023-04-18T06:16:02.923Z,0.67
2023-04-18T06:17:03.071Z,0.60
2023-04-18T06:18:02.725Z,0.63
2023-04-18T06:19:02.421Z,0.68
2023-04-18T06:20:02.965Z,0.71
2023-04-18T06:21:02.490Z,0.72
2023-04-18T06:22:02.193Z,0.74
2023-04-18T06:23:01.807Z,0.72
2023-04-18T06:24:02.452Z,0.70
2023-04-18T06:25:02.069Z,0.70
2023-04-18T06:26:01.924Z,0.69
2023-04-18T06:27:01.851Z,0.73
2023-04-18T06:28:02.466Z,0.78
2023-04-18T06:29:02.409Z,0.80
2023-04-18T06:30:01.912Z,0.84
2023-04-18T06:31:02.330Z,0.86
2023-04-18T06:32:02.189Z,0.86
2023-04-18T06:33:02.006Z,0.91
2023-04-18T06:34:02.401Z,0.64
2023-04-18T06:35:02.352Z,0.72
2023-04-18T06:36:02.089Z,0.53
2023-04-18T06:37:02.034Z,0.55
2023-04-18T06:38:02.087Z,0.51
2023-04-18T06:39:02.009Z,0.47
2023-04-18T06:40:01.922Z,0.45
2023-04-18T06:41:01.614Z,0.46
2023-04-18T06:42:01.997Z,0.48
2023-04-18T06:43:02.426Z,0.53
2023-04-18T06:44:04.169Z,0.58
2023-04-18T06:45:02.509Z,0.60
2023-04-18T06:46:02.465Z,0.62
2023-04-18T06:47:02.138Z,0.65
2023-04-18T06:48:02.469Z,0.66
2023-04-18T06:49:02.560Z,0.68
2023-04-18T06:50:02.035Z,0.88
2023-04-18T06:51:01.936Z,0.87
2023-04-18T06:52:02.146Z,0.86
2023-04-18T06:53:02.376Z,0.89
2023-04-18T06:54:02.141Z,0.96
2023-04-18T06:55:02.617Z,0.87
2023-04-18T06:56:02.261Z,0.80
2023-04-18T06:57:02.342Z,0.79
2023-04-18T06:58:02.098Z,0.73
2023-04-18T06:59:02.565Z,0.76
2023-04-18T07:00:02.629Z,0.82
2023-04-18T07:01:02.286Z,0.83
2023-04-18T07:02:04.034Z,0.89
2023-04-18T07:03:03.956Z,0.95
2023-04-18T07:04:03.696Z,1.07
2023-04-18T07:05:03.930Z,1.04
2023-04-18T07:06:03.508Z,0.95
2023-04-18T07:07:03.683Z,0.95
2023-04-18T07:08:03.497Z,0.98
2023-04-18T07:09:03.881Z,1.33
2023-04-18T07:10:03.914Z,1.15
2023-04-18T07:11:03.570Z,0.92
2023-04-18T07:12:02.757Z,0.77
2023-04-18T07:13:02.795Z,0.65
2023-04-18T07:14:03.205Z,0.69
2023-04-18T07:15:03.189Z,0.77
2023-04-18T07:16:03.059Z,0.79
2023-04-18T07:17:02.921Z,0.85
2023-04-18T07:18:03.299Z,0.85
2023-04-18T07:19:03.406Z,0.89
2023-04-18T07:20:03.098Z,0.92
2023-04-18T07:21:02.907Z,0.94
2023-04-18T07:22:02.519Z,0.99
2023-04-18T07:23:02.939Z,0.96
2023-04-18T07:24:02.562Z,0.87
2023-04-18T07:25:02.880Z,0.86
2023-04-18T07:26:03.062Z,0.81
2023-04-18T07:27:02.585Z,0.79
2023-04-18T07:28:02.873Z,0.74
2023-04-18T07:29:03.113Z,0.77
2023-04-18T07:30:02.679Z,0.79
2023-04-18T07:31:02.522Z,0.80
2023-04-18T07:32:02.868Z,0.86
2023-04-18T07:33:02.916Z,0.93
2023-04-18T07:34:03.012Z,0.98
2023-04-18T07:35:02.791Z,1.06
2023-04-18T07:36:03.298Z,1.09
2023-04-18T07:37:03.104Z,1.25
2023-04-18T07:38:03.176Z,1.37
2023-04-18T07:39:02.931Z,2.14
2023-04-18T07:40:03.492Z,2.22
2023-04-18T07:41:03.071Z,1.83
2023-04-18T07:42:03.637Z,1.33
2023-04-18T07:43:03.294Z,1.67
2023-04-18T07:44:03.681Z,1.70
2023-04-18T07:45:03.271Z,1.63
2023-04-18T07:46:03.232Z,1.09
2023-04-18T07:47:03.896Z,1.56
2023-04-18T07:48:03.313Z,1.58
2023-04-18T07:49:03.266Z,1.62
2023-04-18T07:50:03.834Z,1.64
2023-04-18T07:51:03.475Z,1.66
2023-04-18T07:52:02.818Z,1.78
2023-04-18T07:53:03.076Z,1.88
2023-04-18T07:54:02.665Z,1.97
2023-04-18T07:55:03.204Z,1.30
2023-04-18T07:56:03.026Z,1.43
2023-04-18T07:57:02.939Z,1.01
2023-04-18T07:58:02.980Z,1.02
2023-04-18T07:59:03.358Z,1.24
2023-04-18T08:00:03.317Z,1.80
2023-04-18T08:01:03.096Z,0.94
2023-04-18T08:02:02.679Z,0.99
2023-04-18T08:03:02.687Z,0.97
2023-04-18T08:04:02.717Z,0.90
2023-04-18T08:05:03.082Z,0.95
2023-04-18T08:06:02.596Z,1.02
2023-04-18T08:07:03.000Z,0.97
2023-04-18T08:08:03.125Z,0.98
2023-04-18T08:09:03.344Z,0.96
2023-04-18T08:10:03.305Z,0.93
2023-04-18T08:11:03.132Z,0.92
2023-04-18T08:12:02.605Z,0.97
2023-04-18T08:13:02.470Z,0.87
2023-04-18T08:14:02.876Z,0.83
2023-04-18T08:15:02.715Z,0.83
2023-04-18T08:16:02.529Z,0.82
2023-04-18T08:17:03.255Z,0.82
2023-04-18T08:18:03.150Z,0.81
2023-04-18T08:19:02.997Z,0.84
2023-04-18T08:20:03.502Z,0.87
2023-04-18T08:21:03.355Z,0.89
2023-04-18T08:22:02.730Z,0.91
2023-04-18T08:23:08.642Z,0.89
2023-04-18T08:24:02.586Z,0.89
2023-04-18T08:25:05.397Z,0.87
2023-04-18T08:26:02.386Z,0.88
2023-04-18T08:27:02.870Z,0.93
2023-04-18T08:28:02.749Z,0.97
2023-04-18T08:29:02.698Z,1.01
2023-04-18T08:30:03.162Z,0.99
2023-04-18T08:31:02.667Z,0.97
2023-04-18T08:32:03.557Z,1.00
2023-04-18T08:33:03.311Z,0.96
2023-04-18T08:34:04.964Z,0.93
2023-04-18T08:35:03.557Z,0.99
2023-04-18T08:36:03.177Z,1.05
2023-04-18T08:37:02.987Z,1.07
2023-04-18T08:38:02.561Z,1.07
2023-04-18T08:39:03.100Z,1.09
2023-04-18T08:40:02.718Z,1.14
2023-04-18T08:41:02.787Z,1.17
2023-04-18T08:42:03.322Z,1.18
2023-04-18T08:43:03.010Z,1.18
2023-04-18T08:44:03.526Z,1.13
2023-04-18T08:45:03.158Z,1.15
2023-04-18T08:46:03.220Z,1.15
2023-04-18T08:47:02.781Z,1.09
2023-04-18T08:48:02.807Z,1.10
2023-04-18T08:49:02.696Z,1.09
2023-04-18T08:50:02.644Z,1.03
2023-04-18T08:51:02.461Z,0.99
2023-04-18T08:52:02.519Z,0.95
2023-04-18T08:53:02.342Z,0.93
2023-04-18T08:54:02.666Z,0.94
2023-04-18T08:55:02.189Z,0.95
2023-04-18T08:56:02.608Z,0.99
2023-04-18T08:57:02.931Z,1.05
2023-04-18T08:58:02.831Z,1.11
2023-04-18T08:59:02.981Z,1.13
2023-04-18T09:00:02.533Z,1.13
2023-04-18T09:01:03.167Z,1.14
2023-04-18T09:02:03.150Z,1.15
2023-04-18T09:03:03.198Z,1.18
2023-04-18T09:04:02.894Z,1.12
2023-04-18T09:05:03.271Z,1.03
2023-04-18T09:06:03.152Z,1.01
2023-04-18T09:07:03.684Z,1.01
2023-04-18T09:08:03.796Z,1.01
2023-04-18T09:09:03.279Z,1.02
2023-04-18T09:10:03.659Z,0.99
2023-04-18T09:11:03.221Z,1.00
2023-04-18T09:12:03.595Z,1.01
2023-04-18T09:13:03.910Z,1.03
2023-04-18T09:14:03.465Z,1.12
2023-04-18T09:15:03.892Z,1.24
2023-04-18T09:16:03.910Z,1.31
2023-04-18T09:17:03.315Z,1.39
2023-04-18T09:18:03.204Z,1.47
2023-04-18T09:19:04.170Z,1.50
2023-04-18T09:20:03.066Z,1.41
2023-04-18T09:21:02.783Z,1.60
2023-04-18T09:22:02.953Z,1.54
2023-04-18T09:23:03.313Z,2.61
2023-04-18T09:24:02.966Z,2.66
2023-04-18T09:25:03.449Z,2.50
2023-04-18T09:26:03.136Z,2.50
2023-04-18T09:27:03.601Z,2.73
2023-04-18T09:28:03.440Z,2.86
2023-04-18T09:29:03.165Z,2.88
2023-04-18T09:30:03.033Z,2.89
2023-04-18T09:31:03.473Z,2.90
2023-04-18T09:32:03.203Z,2.80
2023-04-18T09:33:03.250Z,2.96
2023-04-18T09:34:02.714Z,2.01
2023-04-18T09:35:04.333Z,1.74
2023-04-18T09:36:02.668Z,3.12
2023-04-18T09:37:03.844Z,3.41
2023-04-18T09:38:03.421Z,2.70
2023-04-18T09:39:03.225Z,2.21
2023-04-18T09:40:03.808Z,2.90
2023-04-18T09:41:03.457Z,3.57
2023-04-18T09:42:02.492Z,2.65
2023-04-18T09:43:02.883Z,3.10
2023-04-18T09:44:02.729Z,2.12
2023-04-18T09:45:03.127Z,1.93
2023-04-18T09:46:02.669Z,1.88
2023-04-18T09:47:02.509Z,1.83
2023-04-18T09:48:02.967Z,1.66
2023-04-18T09:49:02.912Z,1.63
2023-04-18T09:50:02.983Z,1.78
2023-04-18T09:51:03.111Z,2.17
2023-04-18T09:52:03.357Z,2.88
2023-04-18T09:53:03.109Z,2.92
2023-04-18T09:54:03.055Z,3.38
2023-04-18T09:55:02.839Z,1.97
2023-04-18T09:56:02.956Z,1.95
2023-04-18T09:57:03.162Z,1.63
2023-04-18T09:58:03.807Z,1.54
2023-04-18T09:59:03.762Z,1.61
2023-04-18T10:00:03.309Z,2.35
2023-04-18T10:01:03.479Z,2.60
2023-04-18T10:02:02.819Z,2.29
2023-04-18T10:03:03.051Z,2.01
2023-04-18T10:04:02.874Z,1.86
2023-04-18T10:05:02.976Z,1.81
2023-04-18T10:06:02.790Z,1.87
2023-04-18T10:07:03.557Z,1.51
2023-04-18T10:08:03.391Z,1.38
2023-04-18T10:09:03.273Z,1.29
2023-04-18T10:10:03.341Z,1.18
2023-04-18T10:11:03.639Z,1.18
2023-04-18T10:12:02.863Z,1.23
2023-04-18T10:13:02.587Z,1.26
2023-04-18T10:14:02.658Z,1.23
2023-04-18T10:15:02.733Z,1.18
2023-04-18T10:16:02.722Z,1.17
2023-04-18T10:17:02.731Z,1.13
2023-04-18T10:18:05.840Z,1.07
2023-04-18T10:19:03.285Z,0.99
2023-04-18T10:20:02.997Z,0.93
2023-04-18T10:21:03.094Z,0.91
2023-04-18T10:22:02.919Z,0.90
2023-04-18T10:23:03.304Z,0.92
2023-04-18T10:24:03.518Z,0.98
2023-04-18T10:25:03.225Z,1.04
2023-04-18T10:26:02.946Z,1.14
2023-04-18T10:27:02.620Z,1.31
2023-04-18T10:28:02.652Z,1.45
2023-04-18T10:29:03.125Z,1.52
2023-04-18T10:30:02.430Z,1.73
2023-04-18T10:31:02.700Z,1.69
2023-04-18T10:32:03.076Z,1.61
2023-04-18T10:33:03.157Z,1.58
2023-04-18T10:34:05.583Z,1.60
2023-04-18T10:35:03.139Z,1.68
2023-04-18T10:36:03.251Z,1.75
2023-04-18T10:37:02.315Z,1.83
2023-04-18T10:38:02.264Z,2.48
2023-04-18T10:39:02.484Z,2.37
2023-04-18T10:40:02.679Z,2.09
2023-04-18T10:41:02.632Z,2.40
2023-04-18T10:42:02.806Z,2.25
2023-04-18T10:43:02.844Z,2.11
2023-04-18T10:44:03.197Z,1.71
2023-04-18T10:45:02.808Z,1.71
2023-04-18T10:46:02.709Z,1.65
2023-04-18T10:47:02.556Z,1.61
2023-04-18T10:48:02.326Z,1.56
2023-04-18T10:49:02.912Z,1.40
2023-04-18T10:50:05.932Z,1.35
2023-04-18T10:51:02.695Z,1.39
2023-04-18T10:52:03.089Z,1.51
2023-04-18T10:53:02.897Z,1.52
2023-04-18T10:54:03.234Z,1.54
2023-04-18T10:55:03.134Z,1.45
2023-04-18T10:56:02.944Z,1.36
2023-04-18T10:57:02.633Z,1.36
2023-04-18T10:58:02.738Z,1.43
2023-04-18T10:59:02.944Z,1.52
2023-04-18T11:00:02.771Z,1.50
2023-04-18T11:01:02.948Z,1.30
2023-04-18T11:02:02.634Z,1.23
2023-04-18T11:03:02.944Z,1.25
2023-04-18T11:04:02.977Z,1.43
2023-04-18T11:05:02.452Z,1.51
2023-04-18T11:06:02.849Z,1.55
2023-04-18T11:07:02.004Z,3.17
2023-04-18T11:08:01.726Z,1.74
2023-04-18T11:09:01.931Z,1.87
2023-04-18T11:10:02.022Z,1.64
2023-04-18T11:11:02.133Z,2.03
2023-04-18T11:12:02.396Z,2.89
2023-04-18T11:13:02.373Z,2.17
2023-04-18T11:14:02.451Z,2.00
2023-04-18T11:15:02.204Z,2.10
2023-04-18T11:16:02.270Z,1.61
2023-04-18T11:17:02.565Z,1.55
2023-04-18T11:18:02.615Z,1.84
2023-04-18T11:19:02.701Z,1.67
2023-04-18T11:20:02.520Z,1.76
2023-04-18T11:21:02.603Z,1.69
2023-04-18T11:22:02.519Z,1.18
2023-04-18T11:23:02.380Z,1.16
2023-04-18T11:24:02.415Z,1.32
2023-04-18T11:25:02.509Z,1.37
2023-04-18T11:26:02.427Z,1.26
2023-04-18T11:27:02.162Z,1.41
2023-04-18T11:28:02.332Z,1.50
2023-04-18T11:29:02.080Z,1.81
2023-04-18T11:30:02.271Z,1.92
2023-04-18T11:31:01.978Z,1.77
2023-04-18T11:32:02.580Z,2.05
2023-04-18T11:33:02.722Z,1.69
2023-04-18T11:34:02.588Z,1.61
2023-04-18T11:35:02.381Z,2.00
2023-04-18T11:36:02.441Z,2.53
2023-04-18T11:37:02.248Z,3.71
2023-04-18T11:38:02.322Z,2.23
2023-04-18T11:39:01.958Z,4.00
2023-04-18T11:40:02.362Z,3.94
2023-04-18T11:41:02.076Z,3.48
2023-04-18T11:42:02.751Z,4.10
2023-04-18T11:43:02.790Z,4.05
2023-04-18T11:44:02.689Z,4.06
2023-04-18T11:45:02.526Z,4.08
2023-04-18T11:46:02.444Z,3.97
2023-04-18T11:47:03.011Z,4.08
2023-04-18T11:48:02.534Z,4.10
2023-04-18T11:49:02.828Z,4.21
2023-04-18T11:50:02.955Z,3.65
2023-04-18T11:51:03.145Z,4.31
2023-04-18T11:52:02.264Z,3.26
2023-04-18T11:53:02.285Z,4.09
2023-04-18T11:54:01.815Z,3.93
2023-04-18T11:55:01.858Z,3.98
2023-04-18T11:56:01.868Z,3.53
2023-04-18T11:57:02.339Z,3.84
2023-04-18T11:58:01.884Z,2.71
2023-04-18T11:59:02.219Z,3.68
2023-04-18T12:00:02.579Z,4.03
2023-04-18T12:01:01.961Z,3.71
2023-04-18T12:02:14.421Z,2.44
2023-04-18T12:03:02.455Z,2.82
2023-04-18T12:04:02.987Z,2.03
2023-04-18T12:05:02.677Z,2.16
2023-04-18T12:06:02.446Z,3.88
2023-04-18T12:07:03.039Z,2.14
2023-04-18T12:08:03.079Z,1.70
2023-04-18T12:09:02.840Z,1.55
2023-04-18T12:10:02.960Z,1.51
2023-04-18T12:11:02.870Z,1.54
2023-04-18T12:12:02.644Z,1.58
2023-04-18T12:13:02.445Z,1.43
2023-04-18T12:14:04.031Z,1.33
2023-04-18T12:15:02.300Z,1.30
2023-04-18T12:16:02.547Z,1.16
2023-04-18T12:17:03.114Z,1.14
2023-04-18T12:18:03.200Z,1.13
2023-04-18T12:19:03.044Z,1.21
2023-04-18T12:20:02.612Z,1.40
2023-04-18T12:21:02.721Z,1.46
2023-04-18T12:22:02.164Z,1.47
2023-04-18T12:23:02.232Z,1.56
2023-04-18T12:24:02.335Z,1.48
2023-04-18T12:25:02.550Z,1.41
2023-04-18T12:26:02.785Z,1.38
2023-04-18T12:27:02.390Z,1.58
2023-04-18T12:28:02.465Z,1.69
2023-04-18T12:29:02.884Z,2.85
2023-04-18T12:30:02.987Z,3.74
2023-04-18T12:31:02.817Z,1.96
2023-04-18T12:32:02.771Z,3.11
2023-04-18T12:33:03.138Z,1.99
2023-04-18T12:34:02.566Z,2.21
2023-04-18T12:35:02.599Z,3.69
2023-04-18T12:36:02.733Z,3.79
2023-04-18T12:37:02.748Z,3.72
2023-04-18T12:38:02.461Z,3.74
2023-04-18T12:39:02.064Z,3.72
2023-04-18T12:40:01.966Z,3.71
2023-04-18T12:41:01.959Z,3.73
2023-04-18T12:42:01.967Z,3.84
2023-04-18T12:43:03.872Z,3.82
2023-04-18T12:44:02.546Z,3.19
2023-04-18T12:45:02.538Z,1.70
2023-04-18T12:46:02.830Z,2.57
2023-04-18T12:47:02.771Z,2.40
2023-04-18T12:48:02.388Z,1.69
2023-04-18T12:49:02.274Z,1.89
2023-04-18T12:50:02.443Z,3.00
2023-04-18T12:51:02.127Z,3.65
2023-04-18T12:52:02.114Z,2.04
2023-04-18T12:53:02.746Z,3.47
2023-04-18T12:54:02.641Z,3.26
2023-04-18T12:55:03.138Z,3.31
2023-04-18T12:56:02.738Z,3.25
2023-04-18T12:57:02.742Z,3.19
2023-04-18T12:58:02.540Z,2.18
2023-04-18T12:59:02.438Z,3.18
2023-04-18T13:00:02.520Z,3.12
2023-04-18T13:01:02.751Z,3.13
2023-04-18T13:02:02.595Z,3.21
2023-04-18T13:03:03.199Z,3.20
2023-04-18T13:04:11.597Z,3.00
2023-04-18T13:05:02.577Z,3.17
2023-04-18T13:06:02.701Z,2.48
2023-04-18T13:07:02.785Z,2.48
2023-04-18T13:09:02.436Z,2.83
2023-04-18T13:10:02.948Z,1.79
2023-04-18T13:11:02.646Z,3.17
2023-04-18T13:12:02.907Z,1.38
2023-04-18T13:13:02.677Z,3.04
2023-04-18T13:14:02.679Z,2.82
2023-04-18T13:15:02.810Z,2.52
2023-04-18T13:16:02.899Z,3.05
2023-04-18T13:17:02.644Z,2.40
2023-04-18T13:18:03.089Z,3.02
2023-04-18T13:19:03.198Z,2.94